AYNZ

Lae Nadzab Airport

Nadzab, Papua New Guinea
METAR AYNZ 190900Z 09010KT 9999 FEW010 BKN140 24/22 Q1009
Observed Flight Rules
Sep-19 @ 09:00 UTC (2 hours ago) Visual Flight Rules
Wind Visibility Clouds
90° at 10 knots 10,000+ meters
  • Few at 1,000' AGL
  • Broken at 14,000' AGL
Temperatures Readings
Current 24°C / 75°F
Dewpoint 22°C / 72°F
Humidity 89%
Altimeter 29.79" Hg
Pressure 1009 hPa
Elevation 70
METAR AYNZ 190900Z 09010KT 9999 FEW010 BKN140 24/22 Q1009
Observed Flight Rules
Sep-19 @ 09:00 UTC
(2 hours ago)
VFR
Wind Visibility
90° at 10 knots 10,000+ meters
Clouds
  • Few at 1,000' AGL
  • Broken at 14,000' AGL
Temperature Dewpoint
24°C / 75°F 22°C / 72°F
Humidity Altimeter Pressure
89% 29.79" Hg 1009 hPa